sensor_id;sensor_type;location;lat;lon;timestamp;pressure;altitude;pressure_sealevel;temperature;humidity
3780;BME280;1905;52.482;9.802;2022-09-03T00:02:37;101139.03;;;17.28;56.62
3780;BME280;1905;52.482;9.802;2022-09-03T00:05:10;101137.50;;;17.24;56.42
3780;BME280;1905;52.482;9.802;2022-09-03T00:07:42;101134.16;;;17.20;56.81
3780;BME280;1905;52.482;9.802;2022-09-03T00:10:18;101130.00;;;17.16;57.10
3780;BME280;1905;52.482;9.802;2022-09-03T00:12:50;101128.06;;;17.18;56.45
3780;BME280;1905;52.482;9.802;2022-09-03T00:15:20;101121.22;;;17.14;56.77
3780;BME280;1905;52.482;9.802;2022-09-03T00:17:52;101126.94;;;17.08;56.76
3780;BME280;1905;52.482;9.802;2022-09-03T00:20:24;101124.34;;;17.07;56.51
3780;BME280;1905;52.482;9.802;2022-09-03T00:22:56;101130.56;;;17.07;57.08
3780;BME280;1905;52.482;9.802;2022-09-03T00:25:28;101120.06;;;17.04;56.62
3780;BME280;1905;52.482;9.802;2022-09-03T00:28:03;101122.00;;;17.02;56.92
3780;BME280;1905;52.482;9.802;2022-09-03T00:30:32;101125.59;;;17.01;56.67
3780;BME280;1905;52.482;9.802;2022-09-03T00:33:04;101115.34;;;16.95;56.65
3780;BME280;1905;52.482;9.802;2022-09-03T00:35:40;101120.00;;;16.92;57.03
3780;BME280;1905;52.482;9.802;2022-09-03T00:38:09;101118.38;;;16.89;57.26
3780;BME280;1905;52.482;9.802;2022-09-03T00:40:52;101118.38;;;16.89;56.89
3780;BME280;1905;52.482;9.802;2022-09-03T00:43:31;101114.19;;;16.85;57.06
3780;BME280;1905;52.482;9.802;2022-09-03T00:46:08;101117.81;;;16.84;56.94
3780;BME280;1905;52.482;9.802;2022-09-03T00:48:50;101113.44;;;16.83;56.97
3780;BME280;1905;52.482;9.802;2022-09-03T00:51:23;101113.72;;;16.79;56.75
3780;BME280;1905;52.482;9.802;2022-09-03T00:54:01;101114.78;;;16.76;56.69
3780;BME280;1905;52.482;9.802;2022-09-03T00:56:36;101119.25;;;16.76;56.71
3780;BME280;1905;52.482;9.802;2022-09-03T00:59:16;101110.38;;;16.75;56.76
3780;BME280;1905;52.482;9.802;2022-09-03T01:02:00;101113.59;;;16.66;56.97
3780;BME280;1905;52.482;9.802;2022-09-03T01:04:37;101117.06;;;16.68;57.28
3780;BME280;1905;52.482;9.802;2022-09-03T01:07:16;101121.72;;;16.64;56.84
3780;BME280;1905;52.482;9.802;2022-09-03T01:09:52;101111.34;;;16.60;56.87
3780;BME280;1905;52.482;9.802;2022-09-03T01:12:35;101121.16;;;16.59;57.19
3780;BME280;1905;52.482;9.802;2022-09-03T01:15:10;101120.59;;;16.54;56.69
3780;BME280;1905;52.482;9.802;2022-09-03T01:17:54;101117.81;;;16.56;56.98
3780;BME280;1905;52.482;9.802;2022-09-03T01:20:34;101120.72;;;16.51;56.65
3780;BME280;1905;52.482;9.802;2022-09-03T01:23:35;101122.81;;;16.46;57.11
3780;BME280;1905;52.482;9.802;2022-09-03T01:26:18;101116.81;;;16.43;57.38
3780;BME280;1905;52.482;9.802;2022-09-03T01:29:02;101108.06;;;16.41;57.41
3780;BME280;1905;52.482;9.802;2022-09-03T01:31:36;101111.66;;;16.40;57.20
3780;BME280;1905;52.482;9.802;2022-09-03T01:34:15;101118.03;;;16.37;57.65
3780;BME280;1905;52.482;9.802;2022-09-03T01:36:54;101110.91;;;16.38;57.28
3780;BME280;1905;52.482;9.802;2022-09-03T01:39:33;101118.91;;;16.38;57.49
3780;BME280;1905;52.482;9.802;2022-09-03T01:42:12;101119.09;;;16.35;57.28
3780;BME280;1905;52.482;9.802;2022-09-03T01:44:59;101119.44;;;16.29;57.51
3780;BME280;1905;52.482;9.802;2022-09-03T01:47:40;101123.91;;;16.28;57.55
3780;BME280;1905;52.482;9.802;2022-09-03T01:50:25;101111.63;;;16.26;57.31
3780;BME280;1905;52.482;9.802;2022-09-03T01:53:06;101116.97;;;16.26;57.39
3780;BME280;1905;52.482;9.802;2022-09-03T01:55:43;101112.59;;;16.25;57.55
3780;BME280;1905;52.482;9.802;2022-09-03T01:58:17;101122.69;;;16.20;57.24
3780;BME280;1905;52.482;9.802;2022-09-03T02:00:53;101125.53;;;16.17;57.63
3780;BME280;1905;52.482;9.802;2022-09-03T02:03:24;101127.50;;;16.13;57.23
3780;BME280;1905;52.482;9.802;2022-09-03T02:06:06;101124.75;;;16.15;57.19
3780;BME280;1905;52.482;9.802;2022-09-03T02:08:34;101127.59;;;16.12;57.71
3780;BME280;1905;52.482;9.802;2022-09-03T02:11:04;101133.13;;;16.08;57.69
3780;BME280;1905;52.482;9.802;2022-09-03T02:13:35;101125.19;;;16.07;57.57
3780;BME280;1905;52.482;9.802;2022-09-03T02:16:09;101121.84;;;16.03;57.37
3780;BME280;1905;52.482;9.802;2022-09-03T02:18:40;101122.06;;;16.00;57.90
3780;BME280;1905;52.482;9.802;2022-09-03T02:21:09;101122.91;;;16.01;57.80
3780;BME280;1905;52.482;9.802;2022-09-03T02:23:38;101120.34;;;15.99;57.21
3780;BME280;1905;52.482;9.802;2022-09-03T02:26:08;101123.19;;;15.96;57.33
3780;BME280;1905;52.482;9.802;2022-09-03T02:28:36;101116.31;;;15.92;57.93
3780;BME280;1905;52.482;9.802;2022-09-03T02:31:04;101121.44;;;15.95;57.41
3780;BME280;1905;52.482;9.802;2022-09-03T02:33:35;101119.00;;;15.92;56.89
3780;BME280;1905;52.482;9.802;2022-09-03T02:36:05;101115.53;;;15.90;57.19
3780;BME280;1905;52.482;9.802;2022-09-03T02:38:33;101119.94;;;15.91;57.23
3780;BME280;1905;52.482;9.802;2022-09-03T02:41:01;101119.94;;;15.91;57.73
3780;BME280;1905;52.482;9.802;2022-09-03T02:43:36;101114.00;;;15.86;57.57
3780;BME280;1905;52.482;9.802;2022-09-03T02:46:09;101113.91;;;15.88;57.22
3780;BME280;1905;52.482;9.802;2022-09-03T02:48:40;101114.94;;;15.85;57.53
3780;BME280;1905;52.482;9.802;2022-09-03T02:51:08;101114.00;;;15.86;57.18
3780;BME280;1905;52.482;9.802;2022-09-03T02:53:40;101113.25;;;15.84;57.32
3780;BME280;1905;52.482;9.802;2022-09-03T02:56:08;101117.03;;;15.80;57.45
3780;BME280;1905;52.482;9.802;2022-09-03T02:58:36;101118.75;;;15.81;57.34
3780;BME280;1905;52.482;9.802;2022-09-03T03:01:04;101124.25;;;15.78;57.67
3780;BME280;1905;52.482;9.802;2022-09-03T03:03:32;101118.75;;;15.81;57.32
3780;BME280;1905;52.482;9.802;2022-09-03T03:06:03;101129.59;;;15.78;57.02
3780;BME280;1905;52.482;9.802;2022-09-03T03:08:32;101116.34;;;15.77;57.46
3780;BME280;1905;52.482;9.802;2022-09-03T03:11:00;101109.38;;;15.74;57.33
3780;BME280;1905;52.482;9.802;2022-09-03T03:13:29;101117.38;;;15.74;57.30
3780;BME280;1905;52.482;9.802;2022-09-03T03:15:57;101114.13;;;15.69;57.56
3780;BME280;1905;52.482;9.802;2022-09-03T03:18:25;101117.56;;;15.71;57.35
3780;BME280;1905;52.482;9.802;2022-09-03T03:20:53;101107.88;;;15.70;57.19
3780;BME280;1905;52.482;9.802;2022-09-03T03:23:22;101117.72;;;15.68;57.06
3780;BME280;1905;52.482;9.802;2022-09-03T03:25:50;101112.41;;;15.68;57.67
3780;BME280;1905;52.482;9.802;2022-09-03T03:28:18;101103.66;;;15.66;57.28
3780;BME280;1905;52.482;9.802;2022-09-03T03:30:46;101105.56;;;15.64;57.47
3780;BME280;1905;52.482;9.802;2022-09-03T03:33:14;101112.59;;;15.65;57.03
3780;BME280;1905;52.482;9.802;2022-09-03T03:35:41;101106.50;;;15.63;57.23
3780;BME280;1905;52.482;9.802;2022-09-03T03:38:09;101104.78;;;15.62;57.86
3780;BME280;1905;52.482;9.802;2022-09-03T03:40:38;101118.28;;;15.59;57.51
3780;BME280;1905;52.482;9.802;2022-09-03T03:43:05;101114.66;;;15.60;57.32
3780;BME280;1905;52.482;9.802;2022-09-03T03:45:33;101125.50;;;15.57;57.69
3780;BME280;1905;52.482;9.802;2022-09-03T03:48:01;101117.31;;;15.60;57.51
3780;BME280;1905;52.482;9.802;2022-09-03T03:50:28;101118.44;;;15.56;57.06
3780;BME280;1905;52.482;9.802;2022-09-03T03:52:58;101116.72;;;15.55;57.48
3780;BME280;1905;52.482;9.802;2022-09-03T03:55:27;101109.53;;;15.57;57.26
3780;BME280;1905;52.482;9.802;2022-09-03T03:58:01;101121.38;;;15.52;57.25
3780;BME280;1905;52.482;9.802;2022-09-03T04:00:29;101120.69;;;15.48;57.26
3780;BME280;1905;52.482;9.802;2022-09-03T04:02:58;101116.31;;;15.47;57.40
3780;BME280;1905;52.482;9.802;2022-09-03T04:05:26;101116.31;;;15.47;57.99
3780;BME280;1905;52.482;9.802;2022-09-03T04:08:00;101113.56;;;15.48;57.65
3780;BME280;1905;52.482;9.802;2022-09-03T04:10:28;101104.84;;;15.45;57.98
3780;BME280;1905;52.482;9.802;2022-09-03T04:12:56;101106.53;;;15.47;57.70
3780;BME280;1905;52.482;9.802;2022-09-03T04:15:25;101110.19;;;15.45;57.36
3780;BME280;1905;52.482;9.802;2022-09-03T04:17:53;101112.09;;;15.43;57.26
3780;BME280;1905;52.482;9.802;2022-09-03T04:20:20;101113.78;;;15.44;57.65
3780;BME280;1905;52.482;9.802;2022-09-03T04:22:48;101112.09;;;15.43;57.59
3780;BME280;1905;52.482;9.802;2022-09-03T04:25:17;101116.59;;;15.41;57.47
3780;BME280;1905;52.482;9.802;2022-09-03T04:27:45;101108.63;;;15.41;57.68
3780;BME280;1905;52.482;9.802;2022-09-03T04:30:12;101109.84;;;15.35;57.56
3780;BME280;1905;52.482;9.802;2022-09-03T04:32:41;101112.59;;;15.34;57.61
3780;BME280;1905;52.482;9.802;2022-09-03T04:35:23;101105.63;;;15.31;57.91
3780;BME280;1905;52.482;9.802;2022-09-03T04:37:51;101112.00;;;15.29;58.00
3780;BME280;1905;52.482;9.802;2022-09-03T04:40:20;101113.03;;;15.26;57.54
3780;BME280;1905;52.482;9.802;2022-09-03T04:42:48;101109.66;;;15.23;58.18
3780;BME280;1905;52.482;9.802;2022-09-03T04:45:15;101116.72;;;15.24;57.81
3780;BME280;1905;52.482;9.802;2022-09-03T04:47:55;101108.03;;;15.20;58.00
3780;BME280;1905;52.482;9.802;2022-09-03T04:50:22;101121.34;;;15.20;57.75
3780;BME280;1905;52.482;9.802;2022-09-03T04:52:59;101124.09;;;15.19;58.01
3780;BME280;1905;52.482;9.802;2022-09-03T04:55:33;101111.72;;;15.18;58.02
3780;BME280;1905;52.482;9.802;2022-09-03T04:58:01;101128.56;;;15.18;58.39
3780;BME280;1905;52.482;9.802;2022-09-03T05:00:29;101121.78;;;15.13;58.07
3780;BME280;1905;52.482;9.802;2022-09-03T05:03:00;101124.59;;;15.10;57.62
3780;BME280;1905;52.482;9.802;2022-09-03T05:05:28;101128.19;;;15.09;58.25
3780;BME280;1905;52.482;9.802;2022-09-03T05:07:56;101124.78;;;15.07;58.01
3780;BME280;1905;52.482;9.802;2022-09-03T05:10:24;101126.66;;;15.05;58.13
3780;BME280;1905;52.482;9.802;2022-09-03T05:12:57;101122.09;;;15.07;57.89
3780;BME280;1905;52.482;9.802;2022-09-03T05:15:25;101116.94;;;15.04;58.28
3780;BME280;1905;52.482;9.802;2022-09-03T05:17:56;101122.09;;;15.07;58.11
3780;BME280;1905;52.482;9.802;2022-09-03T05:20:25;101114.28;;;15.04;57.83
3780;BME280;1905;52.482;9.802;2022-09-03T05:22:55;101119.63;;;15.04;58.11
3780;BME280;1905;52.482;9.802;2022-09-03T05:25:23;101125.09;;;15.01;58.13
3780;BME280;1905;52.482;9.802;2022-09-03T05:27:51;101114.63;;;14.98;58.26
3780;BME280;1905;52.482;9.802;2022-09-03T05:30:19;101118.16;;;14.98;57.97
3780;BME280;1905;52.482;9.802;2022-09-03T05:32:48;101116.19;;;15.02;58.13
3780;BME280;1905;52.482;9.802;2022-09-03T05:35:16;101111.91;;;14.99;57.77
3780;BME280;1905;52.482;9.802;2022-09-03T05:37:54;101118.25;;;14.97;58.17
3780;BME280;1905;52.482;9.802;2022-09-03T05:40:22;101113.09;;;14.94;58.03
3780;BME280;1905;52.482;9.802;2022-09-03T05:42:54;101112.38;;;14.90;58.35
3780;BME280;1905;52.482;9.802;2022-09-03T05:45:22;101107.94;;;14.90;57.92
3780;BME280;1905;52.482;9.802;2022-09-03T05:47:50;101111.53;;;14.89;58.43
3780;BME280;1905;52.482;9.802;2022-09-03T05:50:18;101112.56;;;14.87;58.34
3780;BME280;1905;52.482;9.802;2022-09-03T05:52:45;101113.59;;;14.84;58.25
3780;BME280;1905;52.482;9.802;2022-09-03T05:55:14;101118.13;;;14.82;58.07
3780;BME280;1905;52.482;9.802;2022-09-03T05:57:50;101110.16;;;14.82;58.35
3780;BME280;1905;52.482;9.802;2022-09-03T06:00:18;101112.03;;;14.80;58.37
3780;BME280;1905;52.482;9.802;2022-09-03T06:02:49;101117.44;;;14.79;58.15
3780;BME280;1905;52.482;9.802;2022-09-03T06:05:17;101123.53;;;14.81;58.02
3780;BME280;1905;52.482;9.802;2022-09-03T06:07:45;101127.28;;;14.77;58.14
3780;BME280;1905;52.482;9.802;2022-09-03T06:10:15;101126.44;;;14.76;58.56
3780;BME280;1905;52.482;9.802;2022-09-03T06:12:50;101122.13;;;14.74;58.72
3780;BME280;1905;52.482;9.802;2022-09-03T06:15:17;101119.41;;;14.75;58.18
3780;BME280;1905;52.482;9.802;2022-09-03T06:17:45;101121.13;;;14.76;58.49
3780;BME280;1905;52.482;9.802;2022-09-03T06:20:12;101117.69;;;14.74;58.54
3780;BME280;1905;52.482;9.802;2022-09-03T06:22:40;101119.31;;;14.77;58.24
3780;BME280;1905;52.482;9.802;2022-09-03T06:25:08;101126.44;;;14.76;58.45
3780;BME280;1905;52.482;9.802;2022-09-03T06:27:38;101124.53;;;14.78;58.19
3780;BME280;1905;52.482;9.802;2022-09-03T06:30:06;101122.84;;;14.77;58.02
3780;BME280;1905;52.482;9.802;2022-09-03T06:32:33;101117.53;;;14.77;58.13
3780;BME280;1905;52.482;9.802;2022-09-03T06:35:01;101119.16;;;14.80;58.33
3780;BME280;1905;52.482;9.802;2022-09-03T06:37:28;101123.72;;;14.78;58.51
3780;BME280;1905;52.482;9.802;2022-09-03T06:39:56;101125.41;;;14.79;58.31
3780;BME280;1905;52.482;9.802;2022-09-03T06:42:24;101129.09;;;14.76;58.60
3780;BME280;1905;52.482;9.802;2022-09-03T06:44:53;101126.28;;;14.79;57.88
3780;BME280;1905;52.482;9.802;2022-09-03T06:47:23;101128.78;;;14.82;58.18
3780;BME280;1905;52.482;9.802;2022-09-03T06:49:50;101132.13;;;14.86;57.89
3780;BME280;1905;52.482;9.802;2022-09-03T06:52:18;101136.59;;;14.85;57.91
3780;BME280;1905;52.482;9.802;2022-09-03T06:54:46;101133.00;;;14.86;58.30
3780;BME280;1905;52.482;9.802;2022-09-03T06:57:14;101127.69;;;14.86;57.94
3780;BME280;1905;52.482;9.802;2022-09-03T06:59:41;101136.44;;;14.88;57.82
3780;BME280;1905;52.482;9.802;2022-09-03T07:02:10;101132.91;;;14.88;58.38
3780;BME280;1905;52.482;9.802;2022-09-03T07:04:38;101134.38;;;14.94;57.77
3780;BME280;1905;52.482;9.802;2022-09-03T07:07:08;101127.91;;;14.98;58.13
3780;BME280;1905;52.482;9.802;2022-09-03T07:09:38;101132.06;;;15.03;58.08
3780;BME280;1905;52.482;9.802;2022-09-03T07:12:12;101127.59;;;15.04;58.14
3780;BME280;1905;52.482;9.802;2022-09-03T07:14:42;101130.09;;;15.07;57.97
3780;BME280;1905;52.482;9.802;2022-09-03T07:17:11;101124.78;;;15.07;57.58
3780;BME280;1905;52.482;9.802;2022-09-03T07:19:38;101123.56;;;15.12;57.40
3780;BME280;1905;52.482;9.802;2022-09-03T07:22:06;101120.81;;;15.14;57.76
3780;BME280;1905;52.482;9.802;2022-09-03T07:24:34;101124.94;;;15.19;58.27
3780;BME280;1905;52.482;9.802;2022-09-03T07:27:03;101124.88;;;15.21;57.80
3780;BME280;1905;52.482;9.802;2022-09-03T07:29:32;101116.72;;;15.24;58.32
3780;BME280;1905;52.482;9.802;2022-09-03T07:31:59;101122.72;;;15.27;58.46
3780;BME280;1905;52.482;9.802;2022-09-03T07:34:28;101118.19;;;15.29;57.80
3780;BME280;1905;52.482;9.802;2022-09-03T07:36:55;101115.41;;;15.31;58.66
3780;BME280;1905;52.482;9.802;2022-09-03T07:39:23;101120.06;;;15.43;59.11
3780;BME280;1905;52.482;9.802;2022-09-03T07:41:51;101119.94;;;15.46;58.03
3780;BME280;1905;52.482;9.802;2022-09-03T07:44:19;101124.03;;;15.52;58.41
3780;BME280;1905;52.482;9.802;2022-09-03T07:46:48;101120.53;;;15.51;57.71
3780;BME280;1905;52.482;9.802;2022-09-03T07:49:18;101109.16;;;15.63;58.13
3780;BME280;1905;52.482;9.802;2022-09-03T07:51:49;101110.53;;;15.70;58.35
3780;BME280;1905;52.482;9.802;2022-09-03T07:54:19;101106.91;;;15.71;57.73
3780;BME280;1905;52.482;9.802;2022-09-03T07:56:49;101108.34;;;15.77;57.63
3780;BME280;1905;52.482;9.802;2022-09-03T07:59:16;101118.38;;;15.87;58.03
3780;BME280;1905;52.482;9.802;2022-09-03T08:01:44;101109.44;;;15.88;58.06
3780;BME280;1905;52.482;9.802;2022-09-03T08:04:12;101120.63;;;15.95;58.75
3780;BME280;1905;52.482;9.802;2022-09-03T08:06:39;101118.19;;;16.06;58.74
3780;BME280;1905;52.482;9.802;2022-09-03T08:09:10;101123.50;;;16.06;58.13
3780;BME280;1905;52.482;9.802;2022-09-03T08:11:40;101119.59;;;16.12;58.38
3780;BME280;1905;52.482;9.802;2022-09-03T08:14:10;101122.75;;;16.18;57.77
3780;BME280;1905;52.482;9.802;2022-09-03T08:16:40;101122.41;;;16.24;57.86
3780;BME280;1905;52.482;9.802;2022-09-03T08:19:08;101126.97;;;16.36;57.88
3780;BME280;1905;52.482;9.802;2022-09-03T08:21:36;101130.38;;;16.54;58.52
3780;BME280;1905;52.482;9.802;2022-09-03T08:24:09;101122.09;;;16.58;57.31
3780;BME280;1905;52.482;9.802;2022-09-03T08:26:38;101120.19;;;16.75;57.78
3780;BME280;1905;52.482;9.802;2022-09-03T08:29:07;101121.34;;;16.85;57.28
3780;BME280;1905;52.482;9.802;2022-09-03T08:31:37;101110.88;;;16.96;57.02
3780;BME280;1905;52.482;9.802;2022-09-03T08:34:06;101109.50;;;17.03;56.58
3780;BME280;1905;52.482;9.802;2022-09-03T08:36:35;101115.69;;;17.17;56.58
3780;BME280;1905;52.482;9.802;2022-09-03T08:39:05;101118.50;;;17.28;56.21
3780;BME280;1905;52.482;9.802;2022-09-03T08:41:50;101116.00;;;17.40;56.18
3780;BME280;1905;52.482;9.802;2022-09-03T08:44:23;101113.50;;;17.51;56.63
3780;BME280;1905;52.482;9.802;2022-09-03T08:46:54;101110.41;;;17.71;56.36
3780;BME280;1905;52.482;9.802;2022-09-03T08:49:26;101114.09;;;17.82;55.79
3780;BME280;1905;52.482;9.802;2022-09-03T08:51:59;101111.44;;;17.95;55.30
3780;BME280;1905;52.482;9.802;2022-09-03T08:54:29;101107.72;;;18.10;55.46
3780;BME280;1905;52.482;9.802;2022-09-03T08:57:00;101111.84;;;18.28;54.65
3780;BME280;1905;52.482;9.802;2022-09-03T08:59:29;101112.31;;;18.48;54.16
3780;BME280;1905;52.482;9.802;2022-09-03T09:02:07;101112.50;;;18.57;54.67
3780;BME280;1905;52.482;9.802;2022-09-03T09:04:52;101103.50;;;18.71;54.34
3780;BME280;1905;52.482;9.802;2022-09-03T09:07:25;101104.13;;;18.87;54.28
3780;BME280;1905;52.482;9.802;2022-09-03T09:09:58;101096.94;;;19.00;53.32
3780;BME280;1905;52.482;9.802;2022-09-03T09:12:34;101096.78;;;19.14;52.59
3780;BME280;1905;52.482;9.802;2022-09-03T09:15:15;101102.00;;;19.28;52.30
3780;BME280;1905;52.482;9.802;2022-09-03T09:18:06;101097.50;;;19.41;52.50
3780;BME280;1905;52.482;9.802;2022-09-03T09:20:42;101097.34;;;19.55;52.06
3780;BME280;1905;52.482;9.802;2022-09-03T09:23:14;101096.94;;;19.73;51.39
3780;BME280;1905;52.482;9.802;2022-09-03T09:25:49;101089.16;;;19.81;51.99
3780;BME280;1905;52.482;9.802;2022-09-03T09:28:20;101093.50;;;19.94;51.33
3780;BME280;1905;52.482;9.802;2022-09-03T09:30:52;101088.25;;;20.04;51.31
3780;BME280;1905;52.482;9.802;2022-09-03T09:33:21;101085.00;;;20.11;51.08
3780;BME280;1905;52.482;9.802;2022-09-03T09:35:50;101089.59;;;20.33;49.26
3780;BME280;1905;52.482;9.802;2022-09-03T09:38:27;101075.97;;;20.69;49.09
3780;BME280;1905;52.482;9.802;2022-09-03T09:40:55;101084.66;;;20.84;48.73
3780;BME280;1905;52.482;9.802;2022-09-03T09:43:24;101074.97;;;20.93;48.46
3780;BME280;1905;52.482;9.802;2022-09-03T09:45:52;101071.56;;;21.02;48.00
3780;BME280;1905;52.482;9.802;2022-09-03T09:48:22;101063.28;;;21.16;48.82
3780;BME280;1905;52.482;9.802;2022-09-03T09:51:04;101053.72;;;21.23;48.37
3780;BME280;1905;52.482;9.802;2022-09-03T09:53:32;101068.22;;;21.31;49.53
3780;BME280;1905;52.482;9.802;2022-09-03T09:56:03;101049.16;;;21.34;47.59
3780;BME280;1905;52.482;9.802;2022-09-03T09:58:34;101057.13;;;21.36;47.78
3780;BME280;1905;52.482;9.802;2022-09-03T10:01:04;101056.56;;;21.53;49.20
3780;BME280;1905;52.482;9.802;2022-09-03T10:03:40;101056.06;;;21.59;48.76
3780;BME280;1905;52.482;9.802;2022-09-03T10:06:15;101068.78;;;21.57;47.19
3780;BME280;1905;52.482;9.802;2022-09-03T10:09:08;101054.09;;;21.61;48.56
3780;BME280;1905;52.482;9.802;2022-09-03T10:11:40;101044.44;;;21.59;46.95
3780;BME280;1905;52.482;9.802;2022-09-03T10:14:17;101046.78;;;21.63;46.92
3780;BME280;1905;52.482;9.802;2022-09-03T10:16:49;101052.41;;;21.60;45.57
3780;BME280;1905;52.482;9.802;2022-09-03T10:19:27;101049.47;;;21.63;46.75
3780;BME280;1905;52.482;9.802;2022-09-03T10:22:03;101047.47;;;21.65;45.27
3780;BME280;1905;52.482;9.802;2022-09-03T10:24:43;101049.91;;;21.68;45.99
3780;BME280;1905;52.482;9.802;2022-09-03T10:27:15;101044.41;;;21.70;45.44
3780;BME280;1905;52.482;9.802;2022-09-03T10:29:47;101047.44;;;21.76;45.25
3780;BME280;1905;52.482;9.802;2022-09-03T10:32:25;101040.44;;;21.85;45.78
3780;BME280;1905;52.482;9.802;2022-09-03T10:35:09;101044.44;;;21.90;45.79
3780;BME280;1905;52.482;9.802;2022-09-03T10:37:50;101037.38;;;21.89;46.27
3780;BME280;1905;52.482;9.802;2022-09-03T10:40:27;101038.28;;;22.00;45.35
3780;BME280;1905;52.482;9.802;2022-09-03T10:43:25;101035.75;;;21.98;45.71
3780;BME280;1905;52.482;9.802;2022-09-03T10:46:02;101032.38;;;22.06;46.97
3780;BME280;1905;52.482;9.802;2022-09-03T10:48:45;101040.66;;;22.14;46.33
3780;BME280;1905;52.482;9.802;2022-09-03T10:51:17;101032.56;;;22.14;45.72
3780;BME280;1905;52.482;9.802;2022-09-03T10:54:07;101038.66;;;22.16;45.83
3780;BME280;1905;52.482;9.802;2022-09-03T10:56:45;101025.09;;;22.17;44.43
3780;BME280;1905;52.482;9.802;2022-09-03T10:59:31;101027.38;;;22.22;45.00
3780;BME280;1905;52.482;9.802;2022-09-03T11:02:15;101023.44;;;22.26;45.73
3780;BME280;1905;52.482;9.802;2022-09-03T11:04:52;101026.00;;;22.27;44.20
3780;BME280;1905;52.482;9.802;2022-09-03T11:07:25;101031.72;;;22.34;44.37
3780;BME280;1905;52.482;9.802;2022-09-03T11:09:59;101021.66;;;22.36;45.86
3780;BME280;1905;52.482;9.802;2022-09-03T11:12:34;101031.72;;;22.34;46.25
3780;BME280;1905;52.482;9.802;2022-09-03T11:15:06;101018.09;;;22.35;44.70
3780;BME280;1905;52.482;9.802;2022-09-03T11:17:40;101021.78;;;22.34;45.30
3780;BME280;1905;52.482;9.802;2022-09-03T11:20:14;101015.28;;;22.37;44.84
3780;BME280;1905;52.482;9.802;2022-09-03T11:22:44;101026.63;;;22.40;45.14
3780;BME280;1905;52.482;9.802;2022-09-03T11:25:14;101006.22;;;22.38;45.29
3780;BME280;1905;52.482;9.802;2022-09-03T11:27:53;101013.75;;;22.44;43.88
3780;BME280;1905;52.482;9.802;2022-09-03T11:30:26;101002.72;;;22.47;45.82
3780;BME280;1905;52.482;9.802;2022-09-03T11:32:59;101007.09;;;22.48;44.65
3780;BME280;1905;52.482;9.802;2022-09-03T11:35:38;101004.84;;;22.53;44.72
3780;BME280;1905;52.482;9.802;2022-09-03T11:38:19;101010.84;;;22.57;44.79
3780;BME280;1905;52.482;9.802;2022-09-03T11:41:01;101006.91;;;22.61;44.07
3780;BME280;1905;52.482;9.802;2022-09-03T11:43:30;100994.81;;;22.55;44.49
3780;BME280;1905;52.482;9.802;2022-09-03T11:46:29;100997.97;;;22.60;45.51
3780;BME280;1905;52.482;9.802;2022-09-03T11:49:09;101009.19;;;22.65;44.27
3780;BME280;1905;52.482;9.802;2022-09-03T11:51:39;101005.81;;;22.63;44.93
3780;BME280;1905;52.482;9.802;2022-09-03T11:54:24;101008.22;;;22.66;45.14
3780;BME280;1905;52.482;9.802;2022-09-03T11:57:05;101000.69;;;22.70;43.68
3780;BME280;1905;52.482;9.802;2022-09-03T11:59:37;100996.31;;;22.69;44.79
3780;BME280;1905;52.482;9.802;2022-09-03T12:02:14;100993.03;;;22.65;45.85
3780;BME280;1905;52.482;9.802;2022-09-03T12:04:50;100995.88;;;22.64;45.19
3780;BME280;1905;52.482;9.802;2022-09-03T12:07:34;100994.88;;;22.65;45.15
3780;BME280;1905;52.482;9.802;2022-09-03T12:10:16;100990.78;;;22.70;44.83
3780;BME280;1905;52.482;9.802;2022-09-03T12:13:00;100993.91;;;22.75;45.50
3780;BME280;1905;52.482;9.802;2022-09-03T12:15:45;100989.13;;;22.79;44.32
3780;BME280;1905;52.482;9.802;2022-09-03T12:18:22;100982.28;;;22.75;44.64
3780;BME280;1905;52.482;9.802;2022-09-03T12:21:01;100983.03;;;22.77;44.42
3780;BME280;1905;52.482;9.802;2022-09-03T12:23:30;100983.72;;;22.79;44.79
3780;BME280;1905;52.482;9.802;2022-09-03T12:26:02;100986.28;;;22.80;44.89
3780;BME280;1905;52.482;9.802;2022-09-03T12:28:34;100985.72;;;22.86;45.52
3780;BME280;1905;52.482;9.802;2022-09-03T12:31:08;100970.16;;;22.90;44.53
3780;BME280;1905;52.482;9.802;2022-09-03T12:33:50;100973.16;;;22.96;44.60
3780;BME280;1905;52.482;9.802;2022-09-03T12:36:20;100964.06;;;22.97;44.37
3780;BME280;1905;52.482;9.802;2022-09-03T12:38:48;100964.06;;;22.97;45.11
3780;BME280;1905;52.482;9.802;2022-09-03T12:41:36;100973.59;;;23.01;45.35
3780;BME280;1905;52.482;9.802;2022-09-03T12:44:04;100965.34;;;23.03;45.04
3780;BME280;1905;52.482;9.802;2022-09-03T12:46:32;100966.34;;;23.11;44.92
3780;BME280;1905;52.482;9.802;2022-09-03T12:49:03;100972.03;;;23.18;44.90
3780;BME280;1905;52.482;9.802;2022-09-03T12:51:59;100963.38;;;23.15;45.04
3780;BME280;1905;52.482;9.802;2022-09-03T12:54:32;100967.63;;;23.17;44.79
3780;BME280;1905;52.482;9.802;2022-09-03T12:57:00;100961.09;;;23.20;45.01
3780;BME280;1905;52.482;9.802;2022-09-03T12:59:32;100958.56;;;23.28;44.89
3780;BME280;1905;52.482;9.802;2022-09-03T13:02:05;100954.88;;;23.29;45.13
3780;BME280;1905;52.482;9.802;2022-09-03T13:04:41;100956.00;;;23.36;45.38
3780;BME280;1905;52.482;9.802;2022-09-03T13:07:12;100952.09;;;23.40;44.17
3780;BME280;1905;52.482;9.802;2022-09-03T13:09:41;100958.31;;;23.40;43.94
3780;BME280;1905;52.482;9.802;2022-09-03T13:12:20;100955.19;;;23.45;45.81
3780;BME280;1905;52.482;9.802;2022-09-03T13:14:48;100949.53;;;23.48;44.84
3780;BME280;1905;52.482;9.802;2022-09-03T13:17:36;100948.91;;;23.54;43.89
3780;BME280;1905;52.482;9.802;2022-09-03T13:20:21;100944.97;;;23.58;45.35
3780;BME280;1905;52.482;9.802;2022-09-03T13:25:50;100938.09;;;23.73;45.03
3780;BME280;1905;52.482;9.802;2022-09-03T13:28:29;100941.94;;;23.80;45.70
3780;BME280;1905;52.482;9.802;2022-09-03T13:31:02;100944.78;;;23.88;44.90
3780;BME280;1905;52.482;9.802;2022-09-03T13:33:37;100943.16;;;23.95;44.09
3780;BME280;1905;52.482;9.802;2022-09-03T13:36:13;100942.59;;;24.01;45.71
3780;BME280;1905;52.482;9.802;2022-09-03T13:38:49;100950.84;;;24.09;44.16
3780;BME280;1905;52.482;9.802;2022-09-03T13:41:28;100943.84;;;24.16;46.17
3780;BME280;1905;52.482;9.802;2022-09-03T13:44:05;100938.56;;;24.24;45.69